sensor_id;sensor_type;location;lat;lon;timestamp;P1;durP1;ratioP1;P2;durP2;ratioP2
58137;SDS011;43955;47.362;18.930;2023-06-24T00:00:57;7.93;;;5.03;;
58137;SDS011;43955;47.362;18.930;2023-06-24T00:03:24;9.77;;;4.93;;
58137;SDS011;43955;47.362;18.930;2023-06-24T00:05:52;9.52;;;4.97;;
58137;SDS011;43955;47.362;18.930;2023-06-24T00:08:20;9.35;;;5.97;;
58137;SDS011;43955;47.362;18.930;2023-06-24T00:10:51;7.65;;;5.20;;
58137;SDS011;43955;47.362;18.930;2023-06-24T00:13:18;9.93;;;4.97;;
58137;SDS011;43955;47.362;18.930;2023-06-24T00:15:45;9.77;;;5.18;;
58137;SDS011;43955;47.362;18.930;2023-06-24T00:18:12;10.30;;;5.28;;
58137;SDS011;43955;47.362;18.930;2023-06-24T00:20:40;10.75;;;5.78;;
58137;SDS011;43955;47.362;18.930;2023-06-24T00:23:10;9.70;;;5.47;;
58137;SDS011;43955;47.362;18.930;2023-06-24T00:25:41;11.30;;;5.30;;
58137;SDS011;43955;47.362;18.930;2023-06-24T00:28:09;8.60;;;5.20;;
58137;SDS011;43955;47.362;18.930;2023-06-24T00:30:36;11.07;;;4.78;;
58137;SDS011;43955;47.362;18.930;2023-06-24T00:33:04;7.68;;;4.95;;
58137;SDS011;43955;47.362;18.930;2023-06-24T00:35:32;7.65;;;4.70;;
58137;SDS011;43955;47.362;18.930;2023-06-24T00:38:00;7.53;;;5.18;;
58137;SDS011;43955;47.362;18.930;2023-06-24T00:40:27;9.43;;;5.20;;
58137;SDS011;43955;47.362;18.930;2023-06-24T00:42:55;11.50;;;5.70;;
58137;SDS011;43955;47.362;18.930;2023-06-24T00:45:22;12.30;;;5.37;;
58137;SDS011;43955;47.362;18.930;2023-06-24T00:47:50;10.18;;;5.15;;
58137;SDS011;43955;47.362;18.930;2023-06-24T00:50:18;6.20;;;4.55;;
58137;SDS011;43955;47.362;18.930;2023-06-24T00:52:45;8.82;;;5.10;;
58137;SDS011;43955;47.362;18.930;2023-06-24T00:55:16;10.55;;;5.03;;
58137;SDS011;43955;47.362;18.930;2023-06-24T00:57:44;11.18;;;5.30;;
58137;SDS011;43955;47.362;18.930;2023-06-24T01:00:13;9.93;;;5.03;;
58137;SDS011;43955;47.362;18.930;2023-06-24T01:02:44;10.18;;;5.53;;
58137;SDS011;43955;47.362;18.930;2023-06-24T01:05:16;10.32;;;4.82;;
58137;SDS011;43955;47.362;18.930;2023-06-24T01:07:43;7.78;;;4.57;;
58137;SDS011;43955;47.362;18.930;2023-06-24T01:10:12;6.87;;;4.32;;
58137;SDS011;43955;47.362;18.930;2023-06-24T01:12:40;7.53;;;4.40;;
58137;SDS011;43955;47.362;18.930;2023-06-24T01:15:08;7.00;;;4.20;;
58137;SDS011;43955;47.362;18.930;2023-06-24T01:20:31;6.53;;;4.20;;
58137;SDS011;43955;47.362;18.930;2023-06-24T01:33:48;6.97;;;3.55;;
58137;SDS011;43955;47.362;18.930;2023-06-24T01:36:19;7.47;;;4.10;;
58137;SDS011;43955;47.362;18.930;2023-06-24T01:38:51;11.65;;;4.85;;
58137;SDS011;43955;47.362;18.930;2023-06-24T01:41:21;8.38;;;4.22;;
58137;SDS011;43955;47.362;18.930;2023-06-24T01:43:50;5.90;;;3.50;;
58137;SDS011;43955;47.362;18.930;2023-06-24T01:46:21;5.68;;;3.80;;
58137;SDS011;43955;47.362;18.930;2023-06-24T01:48:49;6.80;;;3.80;;
58137;SDS011;43955;47.362;18.930;2023-06-24T01:51:20;5.95;;;3.37;;
58137;SDS011;43955;47.362;18.930;2023-06-24T01:53:48;6.45;;;3.58;;
58137;SDS011;43955;47.362;18.930;2023-06-24T01:56:18;8.05;;;4.43;;
58137;SDS011;43955;47.362;18.930;2023-06-24T01:58:46;5.80;;;3.58;;
58137;SDS011;43955;47.362;18.930;2023-06-24T02:01:14;5.90;;;4.00;;
58137;SDS011;43955;47.362;18.930;2023-06-24T02:03:42;5.32;;;3.67;;
58137;SDS011;43955;47.362;18.930;2023-06-24T02:06:10;7.78;;;3.45;;
58137;SDS011;43955;47.362;18.930;2023-06-24T02:08:39;6.68;;;3.83;;
58137;SDS011;43955;47.362;18.930;2023-06-24T02:11:07;10.23;;;4.25;;
58137;SDS011;43955;47.362;18.930;2023-06-24T02:13:35;7.05;;;3.87;;
58137;SDS011;43955;47.362;18.930;2023-06-24T02:16:04;7.28;;;3.97;;
58137;SDS011;43955;47.362;18.930;2023-06-24T02:18:34;5.65;;;3.47;;
58137;SDS011;43955;47.362;18.930;2023-06-24T02:21:02;7.45;;;3.70;;
58137;SDS011;43955;47.362;18.930;2023-06-24T02:23:30;4.75;;;3.42;;
58137;SDS011;43955;47.362;18.930;2023-06-24T02:26:00;6.25;;;3.47;;
58137;SDS011;43955;47.362;18.930;2023-06-24T02:28:31;7.80;;;3.83;;
58137;SDS011;43955;47.362;18.930;2023-06-24T02:30:59;5.70;;;3.50;;
58137;SDS011;43955;47.362;18.930;2023-06-24T02:33:27;5.85;;;3.70;;
58137;SDS011;43955;47.362;18.930;2023-06-24T02:35:54;9.27;;;3.33;;
58137;SDS011;43955;47.362;18.930;2023-06-24T02:38:21;5.78;;;3.85;;
58137;SDS011;43955;47.362;18.930;2023-06-24T02:40:49;5.10;;;3.35;;
58137;SDS011;43955;47.362;18.930;2023-06-24T02:43:16;5.87;;;3.50;;
58137;SDS011;43955;47.362;18.930;2023-06-24T02:45:45;6.60;;;3.58;;
58137;SDS011;43955;47.362;18.930;2023-06-24T02:48:13;4.95;;;3.42;;
58137;SDS011;43955;47.362;18.930;2023-06-24T02:50:40;5.80;;;3.40;;
58137;SDS011;43955;47.362;18.930;2023-06-24T02:53:11;6.68;;;3.50;;
58137;SDS011;43955;47.362;18.930;2023-06-24T02:55:39;3.97;;;2.80;;
58137;SDS011;43955;47.362;18.930;2023-06-24T02:58:07;5.32;;;2.55;;
58137;SDS011;43955;47.362;18.930;2023-06-24T03:00:37;4.22;;;2.45;;
58137;SDS011;43955;47.362;18.930;2023-06-24T03:03:05;5.07;;;2.80;;
58137;SDS011;43955;47.362;18.930;2023-06-24T03:05:34;5.85;;;3.25;;
58137;SDS011;43955;47.362;18.930;2023-06-24T03:08:02;4.18;;;2.20;;
58137;SDS011;43955;47.362;18.930;2023-06-24T03:10:32;7.28;;;2.20;;
58137;SDS011;43955;47.362;18.930;2023-06-24T03:13:00;5.65;;;2.35;;
58137;SDS011;43955;47.362;18.930;2023-06-24T03:15:28;4.43;;;2.50;;
58137;SDS011;43955;47.362;18.930;2023-06-24T03:17:56;7.22;;;2.65;;
58137;SDS011;43955;47.362;18.930;2023-06-24T03:20:24;4.07;;;2.50;;
58137;SDS011;43955;47.362;18.930;2023-06-24T03:22:52;6.07;;;2.95;;
58137;SDS011;43955;47.362;18.930;2023-06-24T03:25:20;7.00;;;2.75;;
58137;SDS011;43955;47.362;18.930;2023-06-24T03:27:47;5.00;;;2.22;;
58137;SDS011;43955;47.362;18.930;2023-06-24T03:30:15;3.17;;;2.17;;
58137;SDS011;43955;47.362;18.930;2023-06-24T03:32:43;4.15;;;2.00;;
58137;SDS011;43955;47.362;18.930;2023-06-24T03:35:14;5.03;;;2.33;;
58137;SDS011;43955;47.362;18.930;2023-06-24T03:37:43;5.18;;;2.78;;
58137;SDS011;43955;47.362;18.930;2023-06-24T03:40:11;5.15;;;2.00;;
58137;SDS011;43955;47.362;18.930;2023-06-24T03:42:39;3.53;;;2.17;;
58137;SDS011;43955;47.362;18.930;2023-06-24T03:45:07;4.03;;;2.00;;
58137;SDS011;43955;47.362;18.930;2023-06-24T03:47:34;5.22;;;2.80;;
58137;SDS011;43955;47.362;18.930;2023-06-24T03:50:01;4.07;;;2.47;;
58137;SDS011;43955;47.362;18.930;2023-06-24T03:52:29;4.82;;;2.55;;
58137;SDS011;43955;47.362;18.930;2023-06-24T03:54:56;5.85;;;2.20;;
58137;SDS011;43955;47.362;18.930;2023-06-24T03:57:24;4.32;;;2.35;;
58137;SDS011;43955;47.362;18.930;2023-06-24T03:59:52;4.15;;;2.00;;
58137;SDS011;43955;47.362;18.930;2023-06-24T04:02:20;6.25;;;2.58;;
58137;SDS011;43955;47.362;18.930;2023-06-24T04:04:49;3.22;;;2.08;;
58137;SDS011;43955;47.362;18.930;2023-06-24T04:07:19;4.62;;;1.87;;
58137;SDS011;43955;47.362;18.930;2023-06-24T04:09:55;2.87;;;1.70;;
58137;SDS011;43955;47.362;18.930;2023-06-24T04:12:23;2.37;;;1.35;;
58137;SDS011;43955;47.362;18.930;2023-06-24T04:14:50;3.72;;;1.65;;
58137;SDS011;43955;47.362;18.930;2023-06-24T04:17:18;3.30;;;1.55;;
58137;SDS011;43955;47.362;18.930;2023-06-24T04:19:45;3.85;;;1.70;;
58137;SDS011;43955;47.362;18.930;2023-06-24T04:22:13;3.65;;;1.48;;
58137;SDS011;43955;47.362;18.930;2023-06-24T04:24:40;1.98;;;1.10;;
58137;SDS011;43955;47.362;18.930;2023-06-24T04:27:07;2.00;;;1.10;;
58137;SDS011;43955;47.362;18.930;2023-06-24T04:29:35;2.62;;;1.37;;
58137;SDS011;43955;47.362;18.930;2023-06-24T04:32:03;3.45;;;1.00;;
58137;SDS011;43955;47.362;18.930;2023-06-24T04:34:30;3.28;;;0.95;;
58137;SDS011;43955;47.362;18.930;2023-06-24T04:36:59;2.72;;;0.93;;
58137;SDS011;43955;47.362;18.930;2023-06-24T04:39:27;1.48;;;0.88;;
58137;SDS011;43955;47.362;18.930;2023-06-24T04:41:54;2.40;;;1.10;;
58137;SDS011;43955;47.362;18.930;2023-06-24T04:44:21;1.73;;;1.00;;
58137;SDS011;43955;47.362;18.930;2023-06-24T04:46:49;6.70;;;1.10;;
58137;SDS011;43955;47.362;18.930;2023-06-24T04:49:18;11.30;;;1.12;;
58137;SDS011;43955;47.362;18.930;2023-06-24T04:51:45;2.03;;;0.75;;
58137;SDS011;43955;47.362;18.930;2023-06-24T04:54:13;1.30;;;0.85;;
58137;SDS011;43955;47.362;18.930;2023-06-24T04:56:41;8.30;;;1.40;;
58137;SDS011;43955;47.362;18.930;2023-06-24T04:59:08;1.37;;;0.70;;
58137;SDS011;43955;47.362;18.930;2023-06-24T05:01:35;1.77;;;0.70;;
58137;SDS011;43955;47.362;18.930;2023-06-24T05:04:03;1.48;;;0.70;;
58137;SDS011;43955;47.362;18.930;2023-06-24T05:06:30;1.52;;;0.70;;
58137;SDS011;43955;47.362;18.930;2023-06-24T05:08:58;1.50;;;0.70;;
58137;SDS011;43955;47.362;18.930;2023-06-24T05:11:25;3.17;;;0.70;;
58137;SDS011;43955;47.362;18.930;2023-06-24T05:13:52;1.27;;;0.52;;
58137;SDS011;43955;47.362;18.930;2023-06-24T05:16:20;1.37;;;0.60;;
58137;SDS011;43955;47.362;18.930;2023-06-24T05:18:47;3.12;;;0.73;;
58137;SDS011;43955;47.362;18.930;2023-06-24T05:21:14;3.37;;;0.80;;
58137;SDS011;43955;47.362;18.930;2023-06-24T05:23:42;2.37;;;0.98;;
58137;SDS011;43955;47.362;18.930;2023-06-24T05:26:09;3.62;;;0.60;;
58137;SDS011;43955;47.362;18.930;2023-06-24T05:28:37;1.73;;;0.70;;
58137;SDS011;43955;47.362;18.930;2023-06-24T05:31:05;1.45;;;0.77;;
58137;SDS011;43955;47.362;18.930;2023-06-24T05:33:32;2.78;;;0.57;;
58137;SDS011;43955;47.362;18.930;2023-06-24T05:35:59;1.55;;;0.70;;
58137;SDS011;43955;47.362;18.930;2023-06-24T05:38:27;3.40;;;0.70;;
58137;SDS011;43955;47.362;18.930;2023-06-24T05:40:54;2.12;;;0.60;;
58137;SDS011;43955;47.362;18.930;2023-06-24T05:43:22;1.98;;;0.60;;
58137;SDS011;43955;47.362;18.930;2023-06-24T05:45:49;0.88;;;0.50;;
58137;SDS011;43955;47.362;18.930;2023-06-24T05:48:16;1.42;;;0.65;;
58137;SDS011;43955;47.362;18.930;2023-06-24T05:50:44;1.58;;;0.82;;
58137;SDS011;43955;47.362;18.930;2023-06-24T05:53:11;0.98;;;0.60;;
58137;SDS011;43955;47.362;18.930;2023-06-24T05:55:38;1.48;;;0.70;;
58137;SDS011;43955;47.362;18.930;2023-06-24T05:58:06;1.48;;;0.68;;
58137;SDS011;43955;47.362;18.930;2023-06-24T06:00:33;1.02;;;0.57;;
58137;SDS011;43955;47.362;18.930;2023-06-24T06:03:01;2.35;;;0.68;;
58137;SDS011;43955;47.362;18.930;2023-06-24T06:05:28;1.35;;;0.70;;
58137;SDS011;43955;47.362;18.930;2023-06-24T06:07:55;4.50;;;0.90;;
58137;SDS011;43955;47.362;18.930;2023-06-24T06:10:23;1.40;;;0.80;;
58137;SDS011;43955;47.362;18.930;2023-06-24T06:12:50;1.98;;;0.88;;
58137;SDS011;43955;47.362;18.930;2023-06-24T06:15:17;1.27;;;0.57;;
58137;SDS011;43955;47.362;18.930;2023-06-24T06:17:45;1.20;;;0.60;;
58137;SDS011;43955;47.362;18.930;2023-06-24T06:20:13;1.05;;;0.50;;
58137;SDS011;43955;47.362;18.930;2023-06-24T06:22:40;16.45;;;3.03;;
58137;SDS011;43955;47.362;18.930;2023-06-24T06:25:07;2.40;;;0.70;;
58137;SDS011;43955;47.362;18.930;2023-06-24T06:27:35;4.50;;;0.73;;
58137;SDS011;43955;47.362;18.930;2023-06-24T06:30:03;1.80;;;0.82;;
58137;SDS011;43955;47.362;18.930;2023-06-24T06:32:31;1.48;;;0.65;;
58137;SDS011;43955;47.362;18.930;2023-06-24T06:34:58;2.03;;;0.80;;
58137;SDS011;43955;47.362;18.930;2023-06-24T06:37:25;3.08;;;0.70;;
58137;SDS011;43955;47.362;18.930;2023-06-24T06:39:53;1.67;;;0.82;;
58137;SDS011;43955;47.362;18.930;2023-06-24T06:42:20;1.12;;;0.60;;
58137;SDS011;43955;47.362;18.930;2023-06-24T06:44:47;1.25;;;0.60;;
58137;SDS011;43955;47.362;18.930;2023-06-24T06:47:15;1.45;;;0.73;;
58137;SDS011;43955;47.362;18.930;2023-06-24T06:49:42;1.30;;;0.80;;
58137;SDS011;43955;47.362;18.930;2023-06-24T06:52:09;1.30;;;0.60;;
58137;SDS011;43955;47.362;18.930;2023-06-24T06:54:37;0.98;;;0.60;;
58137;SDS011;43955;47.362;18.930;2023-06-24T06:57:04;1.08;;;0.70;;
58137;SDS011;43955;47.362;18.930;2023-06-24T06:59:32;3.33;;;0.70;;
58137;SDS011;43955;47.362;18.930;2023-06-24T07:01:59;1.50;;;0.88;;
58137;SDS011;43955;47.362;18.930;2023-06-24T07:04:27;2.15;;;1.10;;
58137;SDS011;43955;47.362;18.930;2023-06-24T07:06:54;1.30;;;0.88;;
58137;SDS011;43955;47.362;18.930;2023-06-24T07:09:22;1.33;;;0.70;;
58137;SDS011;43955;47.362;18.930;2023-06-24T07:11:49;2.47;;;0.90;;
58137;SDS011;43955;47.362;18.930;2023-06-24T07:14:16;4.65;;;1.10;;
58137;SDS011;43955;47.362;18.930;2023-06-24T07:16:44;3.42;;;1.10;;
58137;SDS011;43955;47.362;18.930;2023-06-24T07:19:11;1.70;;;1.00;;
58137;SDS011;43955;47.362;18.930;2023-06-24T07:21:38;1.87;;;1.20;;
58137;SDS011;43955;47.362;18.930;2023-06-24T07:24:06;1.67;;;0.90;;
58137;SDS011;43955;47.362;18.930;2023-06-24T07:26:33;2.58;;;1.00;;
58137;SDS011;43955;47.362;18.930;2023-06-24T07:29:00;1.67;;;0.88;;
58137;SDS011;43955;47.362;18.930;2023-06-24T07:31:35;2.12;;;1.00;;
58137;SDS011;43955;47.362;18.930;2023-06-24T07:34:04;2.55;;;1.10;;
58137;SDS011;43955;47.362;18.930;2023-06-24T07:36:31;6.68;;;1.37;;
58137;SDS011;43955;47.362;18.930;2023-06-24T07:38:59;2.28;;;1.12;;
58137;SDS011;43955;47.362;18.930;2023-06-24T07:41:26;3.40;;;1.20;;
58137;SDS011;43955;47.362;18.930;2023-06-24T07:43:53;1.92;;;0.95;;
58137;SDS011;43955;47.362;18.930;2023-06-24T07:46:22;5.05;;;1.27;;
58137;SDS011;43955;47.362;18.930;2023-06-24T07:48:49;2.95;;;1.05;;
58137;SDS011;43955;47.362;18.930;2023-06-24T07:51:16;1.90;;;1.10;;
58137;SDS011;43955;47.362;18.930;2023-06-24T07:53:45;5.65;;;1.20;;
58137;SDS011;43955;47.362;18.930;2023-06-24T07:56:12;3.20;;;1.20;;
58137;SDS011;43955;47.362;18.930;2023-06-24T07:58:39;2.37;;;1.10;;
58137;SDS011;43955;47.362;18.930;2023-06-24T08:01:07;2.15;;;1.30;;
58137;SDS011;43955;47.362;18.930;2023-06-24T08:03:34;5.37;;;1.40;;
58137;SDS011;43955;47.362;18.930;2023-06-24T08:06:04;1.80;;;1.00;;
58137;SDS011;43955;47.362;18.930;2023-06-24T08:08:31;5.22;;;1.50;;
58137;SDS011;43955;47.362;18.930;2023-06-24T08:10:58;2.83;;;1.45;;
58137;SDS011;43955;47.362;18.930;2023-06-24T08:13:26;3.47;;;1.35;;
58137;SDS011;43955;47.362;18.930;2023-06-24T08:15:53;2.25;;;1.50;;
58137;SDS011;43955;47.362;18.930;2023-06-24T08:18:20;2.00;;;1.27;;
58137;SDS011;43955;47.362;18.930;2023-06-24T08:20:48;1.90;;;1.20;;
58137;SDS011;43955;47.362;18.930;2023-06-24T08:23:15;1.37;;;1.02;;
58137;SDS011;43955;47.362;18.930;2023-06-24T08:25:42;4.25;;;2.10;;
58137;SDS011;43955;47.362;18.930;2023-06-24T08:28:10;23.50;;;2.87;;
58137;SDS011;43955;47.362;18.930;2023-06-24T08:30:37;4.53;;;1.77;;
58137;SDS011;43955;47.362;18.930;2023-06-24T08:33:05;2.45;;;1.20;;
58137;SDS011;43955;47.362;18.930;2023-06-24T08:35:32;3.10;;;1.10;;
58137;SDS011;43955;47.362;18.930;2023-06-24T08:38:00;4.10;;;1.30;;
58137;SDS011;43955;47.362;18.930;2023-06-24T08:40:27;4.93;;;1.35;;
58137;SDS011;43955;47.362;18.930;2023-06-24T08:42:55;8.85;;;2.05;;
58137;SDS011;43955;47.362;18.930;2023-06-24T08:45:25;1.90;;;1.30;;
58137;SDS011;43955;47.362;18.930;2023-06-24T08:47:52;2.00;;;1.23;;
58137;SDS011;43955;47.362;18.930;2023-06-24T08:50:22;2.67;;;1.20;;
58137;SDS011;43955;47.362;18.930;2023-06-24T08:52:51;2.75;;;1.23;;
58137;SDS011;43955;47.362;18.930;2023-06-24T08:55:20;2.35;;;1.08;;
58137;SDS011;43955;47.362;18.930;2023-06-24T08:57:50;2.72;;;1.35;;
58137;SDS011;43955;47.362;18.930;2023-06-24T09:00:17;4.15;;;1.00;;
58137;SDS011;43955;47.362;18.930;2023-06-24T09:02:45;11.50;;;3.37;;
58137;SDS011;43955;47.362;18.930;2023-06-24T09:05:13;1.58;;;0.98;;
58137;SDS011;43955;47.362;18.930;2023-06-24T09:07:40;1.60;;;1.05;;
58137;SDS011;43955;47.362;18.930;2023-06-24T09:10:07;2.20;;;0.95;;
58137;SDS011;43955;47.362;18.930;2023-06-24T09:12:35;12.77;;;2.30;;
58137;SDS011;43955;47.362;18.930;2023-06-24T09:15:02;3.80;;;0.93;;
58137;SDS011;43955;47.362;18.930;2023-06-24T09:17:31;4.78;;;1.85;;
58137;SDS011;43955;47.362;18.930;2023-06-24T09:20:04;3.05;;;1.00;;
58137;SDS011;43955;47.362;18.930;2023-06-24T09:22:32;1.65;;;0.90;;
58137;SDS011;43955;47.362;18.930;2023-06-24T09:25:00;2.70;;;1.00;;
58137;SDS011;43955;47.362;18.930;2023-06-24T09:27:30;1.70;;;1.10;;
58137;SDS011;43955;47.362;18.930;2023-06-24T09:29:58;1.80;;;1.20;;
58137;SDS011;43955;47.362;18.930;2023-06-24T09:32:26;3.85;;;0.93;;
58137;SDS011;43955;47.362;18.930;2023-06-24T09:34:56;1.85;;;1.05;;
58137;SDS011;43955;47.362;18.930;2023-06-24T09:37:24;6.62;;;1.55;;
58137;SDS011;43955;47.362;18.930;2023-06-24T09:39:52;3.22;;;1.10;;
58137;SDS011;43955;47.362;18.930;2023-06-24T09:42:20;2.40;;;0.95;;
58137;SDS011;43955;47.362;18.930;2023-06-24T09:44:55;1.80;;;1.08;;
58137;SDS011;43955;47.362;18.930;2023-06-24T09:47:23;3.75;;;1.17;;
58137;SDS011;43955;47.362;18.930;2023-06-24T09:49:55;1.67;;;0.88;;
58137;SDS011;43955;47.362;18.930;2023-06-24T09:52:22;3.58;;;1.12;;
58137;SDS011;43955;47.362;18.930;2023-06-24T09:54:50;1.45;;;0.98;;
58137;SDS011;43955;47.362;18.930;2023-06-24T09:57:23;7.80;;;1.30;;
58137;SDS011;43955;47.362;18.930;2023-06-24T09:59:54;1.62;;;0.98;;
58137;SDS011;43955;47.362;18.930;2023-06-24T10:02:21;1.52;;;0.95;;
58137;SDS011;43955;47.362;18.930;2023-06-24T10:04:49;2.12;;;1.00;;
58137;SDS011;43955;47.362;18.930;2023-06-24T10:07:17;1.73;;;1.10;;
58137;SDS011;43955;47.362;18.930;2023-06-24T10:09:45;8.80;;;1.40;;
58137;SDS011;43955;47.362;18.930;2023-06-24T10:12:12;8.88;;;1.17;;
58137;SDS011;43955;47.362;18.930;2023-06-24T10:14:39;1.95;;;1.25;;
58137;SDS011;43955;47.362;18.930;2023-06-24T10:17:07;2.35;;;1.05;;
58137;SDS011;43955;47.362;18.930;2023-06-24T10:19:40;1.80;;;0.90;;
58137;SDS011;43955;47.362;18.930;2023-06-24T10:22:08;3.28;;;1.08;;
58137;SDS011;43955;47.362;18.930;2023-06-24T10:24:38;2.25;;;1.33;;
58137;SDS011;43955;47.362;18.930;2023-06-24T10:27:13;40.50;;;3.95;;
58137;SDS011;43955;47.362;18.930;2023-06-24T10:29:46;2.35;;;1.10;;
58137;SDS011;43955;47.362;18.930;2023-06-24T10:32:14;2.05;;;1.20;;
58137;SDS011;43955;47.362;18.930;2023-06-24T10:34:54;4.82;;;1.67;;
58137;SDS011;43955;47.362;18.930;2023-06-24T10:37:23;3.72;;;1.40;;
58137;SDS011;43955;47.362;18.930;2023-06-24T10:44:50;2.20;;;1.40;;
58137;SDS011;43955;47.362;18.930;2023-06-24T10:47:18;2.75;;;1.35;;
58137;SDS011;43955;47.362;18.930;2023-06-24T10:49:46;1.50;;;1.05;;
58137;SDS011;43955;47.362;18.930;2023-06-24T10:52:13;8.40;;;1.50;;
58137;SDS011;43955;47.362;18.930;2023-06-24T10:54:41;3.40;;;1.65;;
58137;SDS011;43955;47.362;18.930;2023-06-24T10:57:10;3.62;;;1.42;;
58137;SDS011;43955;47.362;18.930;2023-06-24T11:02:09;1.52;;;1.10;;
58137;SDS011;43955;47.362;18.930;2023-06-24T11:04:42;1.90;;;1.27;;
58137;SDS011;43955;47.362;18.930;2023-06-24T11:07:13;4.55;;;1.20;;
58137;SDS011;43955;47.362;18.930;2023-06-24T11:09:41;3.60;;;1.37;;
58137;SDS011;43955;47.362;18.930;2023-06-24T11:12:09;9.68;;;1.77;;
58137;SDS011;43955;47.362;18.930;2023-06-24T11:14:38;3.35;;;1.52;;
58137;SDS011;43955;47.362;18.930;2023-06-24T11:17:05;5.22;;;1.23;;
58137;SDS011;43955;47.362;18.930;2023-06-24T11:19:33;1.70;;;1.00;;
58137;SDS011;43955;47.362;18.930;2023-06-24T11:22:01;5.37;;;1.23;;
58137;SDS011;43955;47.362;18.930;2023-06-24T11:24:28;3.45;;;1.00;;
58137;SDS011;43955;47.362;18.930;2023-06-24T11:26:56;2.03;;;1.25;;
58137;SDS011;43955;47.362;18.930;2023-06-24T11:29:23;2.20;;;1.00;;
58137;SDS011;43955;47.362;18.930;2023-06-24T11:31:51;4.60;;;1.05;;
58137;SDS011;43955;47.362;18.930;2023-06-24T11:34:18;1.75;;;0.93;;
58137;SDS011;43955;47.362;18.930;2023-06-24T11:36:45;2.40;;;1.10;;
58137;SDS011;43955;47.362;18.930;2023-06-24T11:39:26;4.82;;;1.52;;
58137;SDS011;43955;47.362;18.930;2023-06-24T11:41:57;3.15;;;1.20;;
58137;SDS011;43955;47.362;18.930;2023-06-24T11:44:24;9.50;;;1.27;;
58137;SDS011;43955;47.362;18.930;2023-06-24T11:46:52;2.83;;;1.00;;
58137;SDS011;43955;47.362;18.930;2023-06-24T11:49:19;3.53;;;1.00;;
58137;SDS011;43955;47.362;18.930;2023-06-24T11:51:50;1.87;;;1.30;;
58137;SDS011;43955;47.362;18.930;2023-06-24T11:54:18;5.00;;;1.30;;
58137;SDS011;43955;47.362;18.930;2023-06-24T11:56:50;1.92;;;1.23;;
58137;SDS011;43955;47.362;18.930;2023-06-24T11:59:22;4.75;;;1.60;;
58137;SDS011;43955;47.362;18.930;2023-06-24T12:01:56;4.00;;;1.33;;
58137;SDS011;43955;47.362;18.930;2023-06-24T12:04:28;18.48;;;3.05;;
58137;SDS011;43955;47.362;18.930;2023-06-24T12:06:56;2.83;;;1.20;;
58137;SDS011;43955;47.362;18.930;2023-06-24T12:09:24;2.00;;;1.30;;
58137;SDS011;43955;47.362;18.930;2023-06-24T12:11:52;1.42;;;1.10;;
58137;SDS011;43955;47.362;18.930;2023-06-24T12:14:19;1.83;;;1.08;;
58137;SDS011;43955;47.362;18.930;2023-06-24T12:16:46;1.98;;;1.10;;
58137;SDS011;43955;47.362;18.930;2023-06-24T12:19:14;1.85;;;0.90;;
58137;SDS011;43955;47.362;18.930;2023-06-24T12:21:41;1.95;;;1.35;;
58137;SDS011;43955;47.362;18.930;2023-06-24T12:24:08;3.75;;;1.30;;
58137;SDS011;43955;47.362;18.930;2023-06-24T12:26:36;1.60;;;1.08;;
58137;SDS011;43955;47.362;18.930;2023-06-24T12:29:03;2.85;;;1.35;;
58137;SDS011;43955;47.362;18.930;2023-06-24T12:31:31;2.72;;;1.30;;
58137;SDS011;43955;47.362;18.930;2023-06-24T12:33:59;2.33;;;1.30;;
58137;SDS011;43955;47.362;18.930;2023-06-24T12:36:26;4.40;;;1.30;;
58137;SDS011;43955;47.362;18.930;2023-06-24T12:38:53;3.28;;;1.30;;
58137;SDS011;43955;47.362;18.930;2023-06-24T12:41:21;2.20;;;1.58;;
58137;SDS011;43955;47.362;18.930;2023-06-24T12:43:48;3.03;;;1.37;;
58137;SDS011;43955;47.362;18.930;2023-06-24T12:46:16;3.78;;;1.55;;
58137;SDS011;43955;47.362;18.930;2023-06-24T12:48:43;3.67;;;1.35;;
58137;SDS011;43955;47.362;18.930;2023-06-24T12:51:11;1.70;;;1.20;;
58137;SDS011;43955;47.362;18.930;2023-06-24T12:53:38;1.90;;;1.42;;
58137;SDS011;43955;47.362;18.930;2023-06-24T12:56:05;3.62;;;1.60;;
58137;SDS011;43955;47.362;18.930;2023-06-24T12:58:33;3.35;;;1.95;;
58137;SDS011;43955;47.362;18.930;2023-06-24T13:01:00;2.37;;;1.80;;
58137;SDS011;43955;47.362;18.930;2023-06-24T13:03:28;2.30;;;1.60;;
58137;SDS011;43955;47.362;18.930;2023-06-24T13:05:55;2.97;;;1.95;;
58137;SDS011;43955;47.362;18.930;2023-06-24T13:08:22;2.78;;;1.67;;
58137;SDS011;43955;47.362;18.930;2023-06-24T13:10:49;1.98;;;1.30;;
58137;SDS011;43955;47.362;18.930;2023-06-24T13:13:17;6.35;;;1.87;;
58137;SDS011;43955;47.362;18.930;2023-06-24T13:15:44;3.85;;;1.70;;
58137;SDS011;43955;47.362;18.930;2023-06-24T13:18:11;2.35;;;1.50;;
58137;SDS011;43955;47.362;18.930;2023-06-24T13:20:39;17.17;;;2.47;;
58137;SDS011;43955;47.362;18.930;2023-06-24T13:23:07;3.60;;;1.90;;
58137;SDS011;43955;47.362;18.930;2023-06-24T13:25:34;4.87;;;2.05;;
58137;SDS011;43955;47.362;18.930;2023-06-24T13:28:01;2.87;;;1.87;;
58137;SDS011;43955;47.362;18.930;2023-06-24T13:30:29;2.17;;;1.75;;
58137;SDS011;43955;47.362;18.930;2023-06-24T13:32:56;4.47;;;1.60;;
58137;SDS011;43955;47.362;18.930;2023-06-24T13:35:23;6.78;;;2.30;;
58137;SDS011;43955;47.362;18.930;2023-06-24T13:37:51;2.67;;;1.70;;
58137;SDS011;43955;47.362;18.930;2023-06-24T13:40:18;2.67;;;1.73;;
58137;SDS011;43955;47.362;18.930;2023-06-24T13:42:46;13.20;;;2.60;;
58137;SDS011;43955;47.362;18.930;2023-06-24T13:45:13;6.03;;;1.70;;
58137;SDS011;43955;47.362;18.930;2023-06-24T13:47:40;3.12;;;2.30;;
58137;SDS011;43955;47.362;18.930;2023-06-24T13:50:08;3.55;;;2.25;;
58137;SDS011;43955;47.362;18.930;2023-06-24T13:52:36;5.15;;;2.33;;
58137;SDS011;43955;47.362;18.930;2023-06-24T13:55:04;2.25;;;1.80;;
58137;SDS011;43955;47.362;18.930;2023-06-24T13:57:32;2.97;;;2.08;;
58137;SDS011;43955;47.362;18.930;2023-06-24T13:59:59;9.88;;;3.35;;
58137;SDS011;43955;47.362;18.930;2023-06-24T14:02:27;6.72;;;2.62;;
58137;SDS011;43955;47.362;18.930;2023-06-24T14:04:55;2.70;;;2.28;;
58137;SDS011;43955;47.362;18.930;2023-06-24T14:07:22;2.80;;;2.50;;
58137;SDS011;43955;47.362;18.930;2023-06-24T14:09:49;3.47;;;2.62;;
58137;SDS011;43955;47.362;18.930;2023-06-24T14:12:17;4.18;;;2.83;;
58137;SDS011;43955;47.362;18.930;2023-06-24T14:14:44;4.07;;;2.83;;
58137;SDS011;43955;47.362;18.930;2023-06-24T14:17:11;3.40;;;2.92;;
58137;SDS011;43955;47.362;18.930;2023-06-24T14:19:39;4.32;;;2.97;;
58137;SDS011;43955;47.362;18.930;2023-06-24T14:22:07;5.82;;;3.20;;
58137;SDS011;43955;47.362;18.930;2023-06-24T14:24:35;4.32;;;2.80;;
58137;SDS011;43955;47.362;18.930;2023-06-24T14:27:05;6.30;;;2.70;;
58137;SDS011;43955;47.362;18.930;2023-06-24T14:29:33;5.32;;;2.60;;
58137;SDS011;43955;47.362;18.930;2023-06-24T14:32:00;4.60;;;2.72;;
58137;SDS011;43955;47.362;18.930;2023-06-24T14:34:27;3.90;;;3.20;;
58137;SDS011;43955;47.362;18.930;2023-06-24T14:36:56;4.22;;;3.08;;
58137;SDS011;43955;47.362;18.930;2023-06-24T14:39:23;3.00;;;2.60;;
58137;SDS011;43955;47.362;18.930;2023-06-24T14:41:51;4.00;;;3.12;;
58137;SDS011;43955;47.362;18.930;2023-06-24T14:44:18;4.35;;;3.00;;
58137;SDS011;43955;47.362;18.930;2023-06-24T14:46:45;4.05;;;3.17;;
58137;SDS011;43955;47.362;18.930;2023-06-24T14:49:13;6.03;;;3.05;;
58137;SDS011;43955;47.362;18.930;2023-06-24T14:51:40;3.67;;;2.92;;
58137;SDS011;43955;47.362;18.930;2023-06-24T14:54:07;5.80;;;3.15;;
58137;SDS011;43955;47.362;18.930;2023-06-24T14:56:35;15.18;;;4.12;;
58137;SDS011;43955;47.362;18.930;2023-06-24T14:59:02;5.65;;;2.92;;